Terminal Aerodrome Forecast
Issued by NWS

Home | Current Version | Previous Version | Text Only | Print | Product List | Glossary On
Versions: 1 2 3 4 5 6 7 8 9 10 11 12 13 14 15 16 17 18 19 20 21 22 23
000
FTUS44 KTSA 232000 AAA
TAFRVS
TAF AMD
KRVS 232000Z 2320/2418 22012KT P6SM SCT025 BKN035
     FM232200 28012G18KT P6SM BKN050
     FM240000 32018G28KT P6SM SCT025 BKN050
      TEMPO 2402/2404 4SM -RA BR BKN025
     FM240400 33013KT P6SM BKN035
     FM240600 29009KT P6SM SCT120
     FM240900 26010KT P6SM SKC=

USA.gov is the U.S. government's official web portal to all federal, state and local government web resources and services.